createdAt,value
2018-01-16T00:00:34.583Z,21.00
2018-01-16T00:01:34.574Z,19.10
2018-01-16T00:02:34.597Z,17.20
2018-01-16T00:03:34.583Z,19.80
2018-01-16T00:04:34.601Z,19.30
2018-01-16T00:05:34.587Z,20.70
2018-01-16T00:06:34.600Z,22.10
2018-01-16T00:07:34.594Z,20.70
2018-01-16T00:08:34.596Z,19.60
2018-01-16T00:09:35.640Z,20.30
2018-01-16T00:10:34.611Z,20.80
2018-01-16T00:11:34.612Z,20.80
2018-01-16T00:12:34.628Z,18.50
2018-01-16T00:13:34.619Z,19.60
2018-01-16T00:14:34.621Z,23.30
2018-01-16T00:15:34.636Z,18.80
2018-01-16T00:16:34.644Z,19.50
2018-01-16T00:17:34.643Z,20.00
2018-01-16T00:18:34.643Z,22.10
2018-01-16T00:19:34.645Z,15.70
2018-01-16T00:20:34.676Z,20.00
2018-01-16T00:21:34.677Z,18.20
2018-01-16T00:22:34.666Z,19.10
2018-01-16T00:23:34.661Z,18.10
2018-01-16T00:24:34.684Z,16.00
2018-01-16T00:25:34.693Z,18.60
2018-01-16T00:26:34.674Z,18.60
2018-01-16T00:27:34.682Z,18.30
2018-01-16T00:28:34.686Z,16.00
2018-01-16T00:29:34.695Z,19.60
2018-01-16T00:30:34.684Z,19.30
2018-01-16T00:31:34.688Z,17.40
2018-01-16T00:32:34.698Z,16.20
2018-01-16T00:33:34.707Z,19.40
2018-01-16T00:34:34.775Z,19.60
2018-01-16T00:35:34.713Z,16.60
2018-01-16T00:36:34.801Z,18.30
2018-01-16T00:37:34.714Z,19.10
2018-01-16T00:38:34.808Z,17.80
2018-01-16T00:39:34.720Z,15.10
2018-01-16T00:40:34.837Z,16.30
2018-01-16T00:41:34.734Z,13.50
2018-01-16T00:42:34.732Z,17.10
2018-01-16T00:43:34.838Z,17.20
2018-01-16T00:44:34.738Z,15.30
2018-01-16T00:45:34.747Z,14.60
2018-01-16T00:46:34.739Z,14.70
2018-01-16T00:47:34.756Z,15.00
2018-01-16T00:48:34.763Z,18.00
2018-01-16T00:49:34.773Z,14.60
2018-01-16T00:50:34.764Z,15.90
2018-01-16T00:51:34.802Z,14.10
2018-01-16T00:52:34.765Z,16.40
2018-01-16T00:53:34.780Z,16.10
2018-01-16T00:54:34.829Z,15.10
2018-01-16T00:55:34.792Z,19.40
2018-01-16T00:56:34.782Z,15.80
2018-01-16T00:57:34.804Z,16.30
2018-01-16T00:58:34.797Z,16.40
2018-01-16T00:59:34.786Z,16.00
2018-01-16T01:00:34.807Z,13.60
2018-01-16T01:01:34.795Z,14.10
2018-01-16T01:02:34.882Z,16.30
2018-01-16T01:03:34.814Z,13.80
2018-01-16T01:04:34.958Z,16.50
2018-01-16T01:05:34.817Z,14.40
2018-01-16T01:06:34.840Z,14.70
2018-01-16T01:07:34.842Z,16.60
2018-01-16T01:08:34.839Z,13.20
2018-01-16T01:09:34.829Z,13.20
2018-01-16T01:10:34.849Z,10.30
2018-01-16T01:11:34.853Z,11.60
2018-01-16T01:12:34.849Z,12.60
2018-01-16T01:13:34.854Z,13.80
2018-01-16T01:14:34.842Z,11.50
2018-01-16T01:15:34.861Z,12.20
2018-01-16T01:16:34.877Z,14.80
2018-01-16T01:17:34.861Z,12.80
2018-01-16T01:18:34.874Z,10.20
2018-01-16T01:19:34.863Z,11.30
2018-01-16T01:20:34.894Z,13.40
2018-01-16T01:21:34.872Z,11.90
2018-01-16T01:22:34.876Z,13.30
2018-01-16T01:23:34.881Z,11.80
2018-01-16T01:24:34.919Z,10.90
2018-01-16T01:25:34.913Z,12.00
2018-01-16T01:26:34.889Z,9.50
2018-01-16T01:27:34.916Z,11.90
2018-01-16T01:28:34.901Z,10.50
2018-01-16T01:29:34.906Z,11.40
2018-01-16T01:30:34.926Z,10.90
2018-01-16T01:31:34.981Z,11.30
2018-01-16T01:32:34.919Z,12.50
2018-01-16T01:33:34.928Z,11.40
2018-01-16T01:34:34.933Z,11.10
2018-01-16T01:35:34.939Z,9.70
2018-01-16T01:36:34.932Z,12.40
2018-01-16T01:37:34.933Z,11.30
2018-01-16T01:38:34.933Z,9.70
2018-01-16T01:39:34.949Z,9.40
2018-01-16T01:40:34.941Z,11.30
2018-01-16T01:41:34.954Z,12.30
2018-01-16T01:42:34.955Z,11.10
2018-01-16T01:43:34.961Z,7.10
2018-01-16T01:44:34.961Z,9.90
2018-01-16T01:45:34.966Z,9.60
2018-01-16T01:46:34.966Z,8.60
2018-01-16T01:47:34.967Z,11.20
2018-01-16T01:48:34.981Z,11.30
2018-01-16T01:49:34.986Z,10.70
2018-01-16T01:50:34.988Z,11.60
2018-01-16T01:51:34.998Z,11.30
2018-01-16T01:52:35.006Z,9.60
2018-01-16T01:53:34.990Z,8.50
2018-01-16T01:54:34.998Z,8.50
2018-01-16T01:55:35.003Z,11.00
2018-01-16T01:56:35.009Z,7.10
2018-01-16T01:57:35.015Z,9.20
2018-01-16T01:58:35.030Z,8.90
2018-01-16T01:59:35.026Z,7.10
2018-01-16T02:00:35.044Z,7.80
2018-01-16T02:01:35.022Z,9.30
2018-01-16T02:02:35.021Z,8.50
2018-01-16T02:03:35.063Z,8.10
2018-01-16T02:04:36.113Z,5.70
2018-01-16T02:05:35.051Z,7.70
2018-01-16T02:06:35.047Z,7.90
2018-01-16T02:07:35.110Z,6.60
2018-01-16T02:08:35.052Z,8.30
2018-01-16T02:09:35.056Z,8.40
2018-01-16T02:10:35.068Z,7.00
2018-01-16T02:11:35.070Z,4.40
2018-01-16T02:12:35.078Z,8.10
2018-01-16T02:13:35.081Z,6.00
2018-01-16T02:14:35.073Z,7.50
2018-01-16T02:15:35.072Z,10.10
2018-01-16T02:16:35.080Z,10.60
2018-01-16T02:17:35.087Z,6.40
2018-01-16T02:18:35.109Z,8.60
2018-01-16T02:19:35.120Z,12.00
2018-01-16T02:20:35.113Z,8.00
2018-01-16T02:21:35.112Z,9.40
2018-01-16T02:22:35.109Z,5.80
2018-01-16T02:23:35.127Z,6.10
2018-01-16T02:24:35.131Z,8.50
2018-01-16T02:25:35.118Z,6.60
2018-01-16T02:26:35.130Z,6.10
2018-01-16T02:27:35.114Z,6.30
2018-01-16T02:28:35.136Z,5.30
2018-01-16T02:29:35.144Z,6.60
2018-01-16T02:30:35.160Z,6.00
2018-01-16T02:31:35.141Z,5.70
2018-01-16T02:32:35.146Z,5.60
2018-01-16T02:33:35.143Z,8.20
2018-01-16T02:34:35.147Z,5.00
2018-01-16T02:35:35.157Z,6.70
2018-01-16T02:36:35.163Z,5.50
2018-01-16T02:37:35.167Z,6.50
2018-01-16T02:38:35.172Z,9.40
2018-01-16T02:39:35.213Z,7.10
2018-01-16T02:40:35.183Z,8.40
2018-01-16T02:41:35.181Z,7.40
2018-01-16T02:42:35.194Z,7.10
2018-01-16T02:43:35.186Z,8.50
2018-01-16T02:44:35.193Z,9.30
2018-01-16T02:45:35.197Z,7.50
2018-01-16T02:46:35.204Z,10.10
2018-01-16T02:47:35.206Z,7.30
2018-01-16T02:48:35.209Z,9.00
2018-01-16T02:49:35.208Z,8.70
2018-01-16T02:50:35.207Z,10.80
2018-01-16T02:51:35.226Z,10.20
2018-01-16T02:52:35.311Z,10.50
2018-01-16T02:53:35.242Z,10.80
2018-01-16T02:54:35.218Z,10.00
2018-01-16T02:55:35.239Z,9.10
2018-01-16T02:56:35.249Z,11.40
2018-01-16T02:57:35.250Z,10.70
2018-01-16T02:58:35.261Z,11.90
2018-01-16T02:59:35.237Z,9.80
2018-01-16T03:00:35.258Z,10.00
2018-01-16T03:01:35.258Z,10.40
2018-01-16T03:02:35.262Z,11.70
2018-01-16T03:03:35.259Z,14.90
2018-01-16T03:04:35.276Z,11.00
2018-01-16T03:05:35.281Z,11.00
2018-01-16T03:06:35.301Z,13.70
2018-01-16T03:07:35.271Z,11.40
2018-01-16T03:08:35.281Z,15.30
2018-01-16T03:09:35.292Z,12.60
2018-01-16T03:10:35.298Z,11.80
2018-01-16T03:11:35.311Z,14.40
2018-01-16T03:12:35.292Z,13.20
2018-01-16T03:13:35.299Z,14.80
2018-01-16T03:14:35.304Z,12.30
2018-01-16T03:15:35.312Z,14.20
2018-01-16T03:16:35.308Z,13.70
2018-01-16T03:17:35.307Z,13.90
2018-01-16T03:18:35.317Z,13.60
2018-01-16T03:19:35.314Z,11.40
2018-01-16T03:20:35.331Z,12.00
2018-01-16T03:21:35.335Z,13.70
2018-01-16T03:22:35.344Z,10.20
2018-01-16T03:23:35.329Z,15.10
2018-01-16T03:24:35.336Z,11.80
2018-01-16T03:25:35.353Z,12.00
2018-01-16T03:26:35.357Z,13.40
2018-01-16T03:27:35.362Z,12.20
2018-01-16T03:28:35.359Z,12.10
2018-01-16T03:29:35.350Z,12.90
2018-01-16T03:30:35.363Z,10.70
2018-01-16T03:31:35.377Z,10.00
2018-01-16T03:32:35.367Z,13.90
2018-01-16T03:33:35.375Z,12.20
2018-01-16T03:34:35.373Z,15.80
2018-01-16T03:35:35.386Z,12.80
2018-01-16T03:36:36.427Z,12.90
2018-01-16T03:37:35.382Z,13.20
2018-01-16T03:38:35.418Z,13.20
2018-01-16T03:39:35.401Z,11.20
2018-01-16T03:40:35.399Z,11.50
2018-01-16T03:41:35.459Z,12.00
2018-01-16T03:42:35.421Z,12.30
2018-01-16T03:43:35.418Z,10.50
2018-01-16T03:44:35.422Z,10.10
2018-01-16T03:45:35.414Z,10.90
2018-01-16T03:46:35.432Z,11.40
2018-01-16T03:47:35.420Z,12.10
2018-01-16T03:48:35.422Z,13.60
2018-01-16T03:49:35.427Z,12.30
2018-01-16T03:50:36.524Z,12.60
2018-01-16T03:51:35.441Z,12.50
2018-01-16T03:52:35.520Z,9.60
2018-01-16T03:53:35.447Z,10.20
2018-01-16T03:54:35.533Z,12.40
2018-01-16T03:55:35.458Z,11.60
2018-01-16T03:56:35.468Z,10.60
2018-01-16T03:57:35.457Z,11.40
2018-01-16T03:58:35.462Z,11.80
2018-01-16T03:59:35.468Z,8.50
2018-01-16T04:00:35.470Z,11.20
2018-01-16T04:01:35.476Z,11.60
2018-01-16T04:02:35.483Z,10.90
2018-01-16T04:03:35.482Z,8.90
2018-01-16T04:04:35.502Z,12.00
2018-01-16T04:05:35.482Z,12.30
2018-01-16T04:06:35.489Z,13.10
2018-01-16T04:07:35.497Z,8.90
2018-01-16T04:08:35.502Z,10.80
2018-01-16T04:09:35.514Z,9.20
2018-01-16T04:10:35.507Z,12.30
2018-01-16T04:11:35.512Z,13.20
2018-01-16T04:12:35.520Z,9.80
2018-01-16T04:13:35.532Z,11.00
2018-01-16T04:14:35.521Z,9.10
2018-01-16T04:15:35.528Z,14.40
2018-01-16T04:16:35.569Z,8.30
2018-01-16T04:17:35.526Z,9.80
2018-01-16T04:18:35.544Z,14.90
2018-01-16T04:19:35.549Z,14.20
2018-01-16T04:20:35.606Z,12.00
2018-01-16T04:21:35.562Z,11.90
2018-01-16T04:22:35.559Z,13.00
2018-01-16T04:23:35.554Z,11.10
2018-01-16T04:24:35.561Z,7.80
2018-01-16T04:25:35.566Z,11.20
2018-01-16T04:26:35.663Z,10.50
2018-01-16T04:27:35.579Z,15.90
2018-01-16T04:28:35.583Z,20.10
2018-01-16T04:29:35.585Z,17.40
2018-01-16T04:30:35.583Z,13.00
2018-01-16T04:31:35.593Z,10.70
2018-01-16T04:32:35.593Z,9.50
2018-01-16T04:33:35.602Z,11.10
2018-01-16T04:34:35.607Z,12.40
2018-01-16T04:35:35.698Z,16.80
2018-01-16T04:36:35.611Z,7.40
2018-01-16T04:37:35.757Z,4.90
2018-01-16T04:38:35.621Z,2.10
2018-01-16T04:39:35.619Z,5.90
2018-01-16T04:40:35.636Z,9.40
2018-01-16T04:41:35.624Z,7.40
2018-01-16T04:42:35.644Z,8.20
2018-01-16T04:43:35.629Z,8.60
2018-01-16T04:44:35.669Z,6.50
2018-01-16T04:45:35.639Z,6.00
2018-01-16T04:46:35.678Z,8.60
2018-01-16T04:47:35.650Z,7.00
2018-01-16T04:48:35.701Z,6.30
2018-01-16T04:49:35.654Z,12.50
2018-01-16T04:50:35.699Z,7.80
2018-01-16T04:51:35.682Z,9.70
2018-01-16T04:52:35.667Z,9.50
2018-01-16T04:53:35.669Z,6.30
2018-01-16T04:54:35.690Z,6.50
2018-01-16T04:55:35.682Z,8.80
2018-01-16T04:56:35.702Z,11.10
2018-01-16T04:57:35.707Z,10.90
2018-01-16T04:58:35.707Z,6.50
2018-01-16T04:59:35.711Z,5.50
2018-01-16T05:00:35.698Z,7.00
2018-01-16T05:01:35.702Z,6.90
2018-01-16T05:02:35.706Z,6.10
2018-01-16T05:03:35.710Z,5.30
2018-01-16T05:04:35.729Z,6.10
2018-01-16T05:05:35.805Z,7.40
2018-01-16T05:06:35.712Z,5.30
2018-01-16T05:07:35.744Z,4.50
2018-01-16T05:08:35.726Z,4.20
2018-01-16T05:09:35.735Z,4.80
2018-01-16T05:10:35.732Z,4.60
2018-01-16T05:11:35.735Z,5.60
2018-01-16T05:12:35.751Z,3.00
2018-01-16T05:13:35.751Z,5.20
2018-01-16T05:14:35.744Z,5.40
2018-01-16T05:15:35.765Z,4.50
2018-01-16T05:16:35.758Z,4.90
2018-01-16T05:17:35.766Z,4.30
2018-01-16T05:18:35.764Z,5.90
2018-01-16T05:19:35.803Z,7.50
2018-01-16T05:20:35.797Z,6.80
2018-01-16T05:21:35.811Z,6.40
2018-01-16T05:22:35.788Z,9.00
2018-01-16T05:23:35.826Z,7.20
2018-01-16T05:24:35.804Z,7.10
2018-01-16T05:25:35.793Z,9.20
2018-01-16T05:26:35.849Z,4.50
2018-01-16T05:27:35.810Z,10.10
2018-01-16T05:28:35.862Z,11.10
2018-01-16T05:29:35.819Z,4.50
2018-01-16T05:30:35.884Z,6.90
2018-01-16T05:31:35.811Z,7.00
2018-01-16T05:32:35.883Z,7.00
2018-01-16T05:33:35.848Z,7.60
2018-01-16T05:34:35.838Z,9.60
2018-01-16T05:35:35.908Z,7.20
2018-01-16T05:36:35.835Z,6.70
2018-01-16T05:37:35.919Z,6.50
2018-01-16T05:38:35.843Z,8.80
2018-01-16T05:39:35.932Z,8.50
2018-01-16T05:40:35.859Z,8.70
2018-01-16T05:41:35.952Z,10.60
2018-01-16T05:42:35.872Z,11.20
2018-01-16T05:43:35.958Z,8.40
2018-01-16T05:44:35.871Z,9.10
2018-01-16T05:45:35.858Z,12.00
2018-01-16T05:46:35.859Z,11.30
2018-01-16T05:47:35.872Z,9.70
2018-01-16T05:48:35.880Z,9.80
2018-01-16T05:49:35.885Z,14.40
2018-01-16T05:50:35.899Z,9.90
2018-01-16T05:51:35.928Z,12.60
2018-01-16T05:52:35.892Z,11.00
2018-01-16T05:53:35.889Z,9.00
2018-01-16T05:54:35.901Z,12.80
2018-01-16T05:55:36.966Z,13.30
2018-01-16T05:56:35.920Z,13.20
2018-01-16T05:57:35.919Z,10.90
2018-01-16T05:58:35.920Z,13.70
2018-01-16T05:59:35.925Z,9.80
2018-01-16T06:00:35.924Z,11.00
2018-01-16T06:01:35.940Z,16.50
2018-01-16T06:02:35.926Z,16.10
2018-01-16T06:03:35.934Z,10.00
2018-01-16T06:04:35.973Z,15.50
2018-01-16T06:05:35.942Z,19.10
2018-01-16T06:06:35.961Z,12.20
2018-01-16T06:07:35.944Z,11.70
2018-01-16T06:08:35.957Z,15.00
2018-01-16T06:09:36.038Z,16.10
2018-01-16T06:10:35.972Z,11.30
2018-01-16T06:11:35.982Z,14.10
2018-01-16T06:12:36.097Z,8.40
2018-01-16T06:13:35.975Z,10.60
2018-01-16T06:14:36.084Z,11.50
2018-01-16T06:15:35.975Z,11.10
2018-01-16T06:16:35.988Z,16.00
2018-01-16T06:17:36.111Z,8.50
2018-01-16T06:18:35.995Z,12.20
2018-01-16T06:19:36.009Z,10.80
2018-01-16T06:20:35.987Z,13.80
2018-01-16T06:21:36.000Z,10.40
2018-01-16T06:22:35.998Z,11.10
2018-01-16T06:23:36.029Z,12.10
2018-01-16T06:24:36.058Z,12.30
2018-01-16T06:25:36.018Z,12.10
2018-01-16T06:26:36.062Z,8.60
2018-01-16T06:27:36.020Z,11.50
2018-01-16T06:28:36.062Z,11.20
2018-01-16T06:29:36.028Z,11.50
2018-01-16T06:30:36.036Z,11.60
2018-01-16T06:31:36.087Z,11.70
2018-01-16T06:32:36.046Z,15.70
2018-01-16T06:33:36.104Z,12.90
2018-01-16T06:34:36.056Z,15.30
2018-01-16T06:35:36.050Z,8.40
2018-01-16T06:36:36.122Z,10.70
2018-01-16T06:37:36.061Z,9.60
2018-01-16T06:38:36.148Z,12.10
2018-01-16T06:39:36.071Z,10.90
2018-01-16T06:40:36.079Z,12.60
2018-01-16T06:41:36.083Z,10.30
2018-01-16T06:42:36.083Z,11.10
2018-01-16T06:43:36.074Z,12.20
2018-01-16T06:44:36.082Z,11.30
2018-01-16T06:45:36.188Z,10.30
2018-01-16T06:46:36.092Z,15.00
2018-01-16T06:47:36.100Z,14.20
2018-01-16T06:48:36.159Z,9.70
2018-01-16T06:49:36.096Z,11.40
2018-01-16T06:50:36.250Z,13.20
2018-01-16T06:51:36.111Z,9.00
2018-01-16T06:52:36.132Z,11.60
2018-01-16T06:53:36.117Z,11.90
2018-01-16T06:54:36.137Z,10.50
2018-01-16T06:55:36.141Z,9.10
2018-01-16T06:56:36.143Z,10.20
2018-01-16T06:57:36.179Z,13.80
2018-01-16T06:58:36.198Z,15.20
2018-01-16T06:59:36.188Z,8.30
2018-01-16T07:00:36.145Z,7.90
2018-01-16T07:01:36.141Z,11.90
2018-01-16T07:02:36.154Z,11.70
2018-01-16T07:03:36.154Z,10.40
2018-01-16T07:04:36.166Z,10.10
2018-01-16T07:05:36.169Z,10.00
2018-01-16T07:06:36.167Z,9.60
2018-01-16T07:07:36.156Z,12.90
2018-01-16T07:08:36.165Z,9.10
2018-01-16T07:09:36.175Z,12.00
2018-01-16T07:10:36.269Z,12.50
2018-01-16T07:11:36.184Z,9.30
2018-01-16T07:12:36.196Z,11.00
2018-01-16T07:13:36.197Z,10.00
2018-01-16T07:14:36.184Z,13.40
2018-01-16T07:15:36.188Z,13.20
2018-01-16T07:16:36.204Z,10.60
2018-01-16T07:17:36.330Z,14.70
2018-01-16T07:18:36.225Z,13.40
2018-01-16T07:19:36.303Z,13.20
2018-01-16T07:20:36.206Z,13.90
2018-01-16T07:21:36.221Z,10.40
2018-01-16T07:22:36.222Z,12.00
2018-01-16T07:23:36.234Z,10.80
2018-01-16T07:24:36.242Z,14.40
2018-01-16T07:25:36.233Z,10.30
2018-01-16T07:26:36.249Z,12.30
2018-01-16T07:27:36.250Z,9.80
2018-01-16T07:28:36.258Z,9.10
2018-01-16T07:29:36.265Z,10.90
2018-01-16T07:30:36.279Z,10.80
2018-01-16T07:31:36.252Z,9.80
2018-01-16T07:32:36.305Z,11.10
2018-01-16T07:33:36.277Z,10.80
2018-01-16T07:34:36.324Z,11.90
2018-01-16T07:35:36.268Z,10.50
2018-01-16T07:36:36.299Z,9.60
2018-01-16T07:37:36.299Z,13.00
2018-01-16T07:38:36.287Z,8.50
2018-01-16T07:39:36.352Z,10.60
2018-01-16T07:40:36.283Z,12.10
2018-01-16T07:41:36.362Z,12.40
2018-01-16T07:42:36.287Z,8.10
2018-01-16T07:43:36.293Z,13.90
2018-01-16T07:44:36.395Z,10.30
2018-01-16T07:45:36.298Z,10.60
2018-01-16T07:46:36.395Z,10.40
2018-01-16T07:47:36.311Z,12.90
2018-01-16T07:48:36.416Z,11.00
2018-01-16T07:49:36.320Z,10.90
2018-01-16T07:50:36.419Z,9.70
2018-01-16T07:51:36.333Z,9.70
2018-01-16T07:52:36.330Z,8.30
2018-01-16T07:53:36.338Z,10.30
2018-01-16T07:54:36.344Z,10.00
2018-01-16T07:55:36.350Z,10.10
2018-01-16T07:56:36.337Z,7.50
2018-01-16T07:57:36.343Z,7.20
2018-01-16T07:58:36.367Z,8.40
2018-01-16T07:59:36.355Z,5.60
2018-01-16T08:00:36.358Z,9.60
2018-01-16T08:01:36.386Z,9.10
2018-01-16T08:02:36.395Z,8.60
2018-01-16T08:03:36.398Z,8.70
2018-01-16T08:04:36.382Z,5.40
2018-01-16T08:05:36.412Z,6.60
2018-01-16T08:06:36.373Z,7.10
2018-01-16T08:07:36.428Z,8.30
2018-01-16T08:08:36.387Z,6.90
2018-01-16T08:09:36.449Z,4.80
2018-01-16T08:10:36.388Z,6.20
2018-01-16T08:11:37.487Z,6.90
2018-01-16T08:12:36.401Z,10.10
2018-01-16T08:13:37.503Z,8.20
2018-01-16T08:14:36.402Z,8.00
2018-01-16T08:15:36.488Z,8.00
2018-01-16T08:16:36.407Z,8.70
2018-01-16T08:17:36.502Z,8.50
2018-01-16T08:18:36.426Z,10.50
2018-01-16T08:19:36.535Z,7.50
2018-01-16T08:20:36.446Z,10.30
2018-01-16T08:21:36.531Z,7.10
2018-01-16T08:22:36.455Z,7.60
2018-01-16T08:23:36.439Z,10.60
2018-01-16T08:24:36.438Z,7.70
2018-01-16T08:25:36.443Z,7.50
2018-01-16T08:26:36.575Z,6.70
2018-01-16T08:27:36.501Z,8.40
2018-01-16T08:28:36.474Z,6.30
2018-01-16T08:29:36.515Z,11.70
2018-01-16T08:30:37.517Z,10.80
2018-01-16T08:31:36.465Z,6.00
2018-01-16T08:32:36.511Z,7.60
2018-01-16T08:33:36.506Z,10.40
2018-01-16T08:34:36.534Z,8.90
2018-01-16T08:35:36.508Z,8.80
2018-01-16T08:36:36.596Z,5.30
2018-01-16T08:37:36.495Z,5.10
2018-01-16T08:38:36.551Z,2.70
2018-01-16T08:39:36.540Z,4.70
2018-01-16T08:40:36.595Z,1.90
2018-01-16T08:41:36.510Z,1.40
2018-01-16T08:42:36.625Z,2.60
2018-01-16T08:43:36.536Z,3.50
2018-01-16T08:44:36.595Z,2.50
2018-01-16T08:45:36.521Z,3.00
2018-01-16T08:46:36.547Z,2.10
2018-01-16T08:47:36.637Z,2.70
2018-01-16T08:48:36.560Z,1.30
2018-01-16T08:49:36.624Z,3.70
2018-01-16T08:50:36.540Z,2.00
2018-01-16T08:51:36.632Z,3.00
2018-01-16T08:52:36.576Z,2.50
2018-01-16T08:53:36.542Z,3.10
2018-01-16T08:54:36.697Z,2.00
2018-01-16T08:55:36.557Z,4.70
2018-01-16T08:56:36.673Z,2.80
2018-01-16T08:57:36.578Z,2.80
2018-01-16T08:58:36.619Z,2.50
2018-01-16T08:59:36.578Z,2.40
2018-01-16T09:00:36.584Z,1.70
2018-01-16T09:01:36.596Z,2.10
2018-01-16T09:02:36.588Z,2.30
2018-01-16T09:03:36.595Z,3.30
2018-01-16T09:04:36.608Z,2.60
2018-01-16T09:05:36.593Z,1.60
2018-01-16T09:06:36.614Z,3.60
2018-01-16T09:07:36.619Z,1.80
2018-01-16T09:08:36.644Z,3.80
2018-01-16T09:09:36.621Z,2.80
2018-01-16T09:10:36.620Z,2.30
2018-01-16T09:11:36.618Z,3.80
2018-01-16T09:12:36.697Z,4.50
2018-01-16T09:13:36.645Z,4.90
2018-01-16T09:14:36.645Z,4.70
2018-01-16T09:15:36.643Z,3.20
2018-01-16T09:16:36.745Z,4.30
2018-01-16T09:17:36.654Z,4.50
2018-01-16T09:18:36.744Z,4.20
2018-01-16T09:19:36.653Z,3.70
2018-01-16T09:20:36.733Z,5.10
2018-01-16T09:21:36.661Z,2.90
2018-01-16T09:22:36.700Z,3.40
2018-01-16T09:23:36.652Z,3.70
2018-01-16T09:24:36.680Z,6.30
2018-01-16T09:25:36.670Z,4.10
2018-01-16T09:26:37.829Z,7.20
2018-01-16T09:27:36.721Z,2.60
2018-01-16T09:28:36.706Z,2.20
2018-01-16T09:29:38.811Z,2.20
2018-01-16T09:30:36.732Z,3.90
2018-01-16T09:31:41.444Z,3.30
2018-01-16T09:32:36.700Z,3.80
2018-01-16T09:33:36.711Z,3.40
2018-01-16T09:34:36.702Z,3.30
2018-01-16T09:35:36.721Z,4.50
2018-01-16T09:36:36.705Z,3.30
2018-01-16T09:37:36.811Z,2.80
2018-01-16T09:38:36.715Z,2.70
2018-01-16T09:39:37.819Z,5.00
2018-01-16T09:40:36.729Z,4.90
2018-01-16T09:41:36.799Z,2.80
2018-01-16T09:42:36.730Z,5.20
2018-01-16T09:43:36.831Z,3.30
2018-01-16T09:44:36.749Z,3.00
2018-01-16T09:45:36.853Z,5.10
2018-01-16T09:46:36.753Z,5.50
2018-01-16T09:47:37.793Z,4.50
2018-01-16T09:48:36.748Z,5.70
2018-01-16T09:49:36.772Z,5.20
2018-01-16T09:50:36.791Z,5.10
2018-01-16T09:51:37.851Z,4.10
2018-01-16T09:52:36.790Z,3.90
2018-01-16T09:53:36.925Z,2.60
2018-01-16T09:54:36.799Z,3.00
2018-01-16T09:55:38.799Z,4.10
2018-01-16T09:56:36.793Z,3.40
2018-01-16T09:57:48.503Z,1.50
2018-01-16T09:58:36.812Z,2.50
2018-01-16T09:59:36.861Z,1.50
2018-01-16T10:00:36.819Z,3.30
2018-01-16T10:01:36.847Z,1.50
2018-01-16T10:02:36.815Z,1.30
2018-01-16T10:03:36.918Z,1.20
2018-01-16T10:04:36.819Z,2.10
2018-01-16T10:05:38.919Z,1.20
2018-01-16T10:06:36.818Z,2.40
2018-01-16T10:07:36.833Z,1.40
2018-01-16T10:08:38.948Z,1.20
2018-01-16T10:09:36.861Z,2.60
2018-01-16T10:10:36.842Z,1.70
2018-01-16T10:11:36.833Z,1.40
2018-01-16T10:12:36.847Z,2.30
2018-01-16T10:13:38.008Z,3.60
2018-01-16T10:14:36.870Z,3.50
2018-01-16T10:15:36.937Z,2.10
2018-01-16T10:16:36.841Z,1.40
2018-01-16T10:17:37.875Z,2.20
2018-01-16T10:18:36.931Z,1.70
2018-01-16T10:19:41.543Z,2.50
2018-01-16T10:20:36.871Z,1.90
2018-01-16T10:21:36.983Z,2.40
2018-01-16T10:22:36.886Z,1.50
2018-01-16T10:23:37.913Z,1.70
2018-01-16T10:24:36.897Z,3.10
2018-01-16T10:25:41.518Z,2.70
2018-01-16T10:26:36.908Z,1.70
2018-01-16T10:27:37.955Z,2.00
2018-01-16T10:28:36.895Z,1.70
2018-01-16T10:29:37.963Z,1.50
2018-01-16T10:30:36.901Z,2.80
2018-01-16T10:31:37.966Z,1.50
2018-01-16T10:32:36.927Z,3.50
2018-01-16T10:33:36.976Z,1.90
2018-01-16T10:34:36.926Z,1.70
2018-01-16T10:35:37.027Z,1.70
2018-01-16T10:36:36.917Z,3.10
2018-01-16T10:37:37.027Z,2.00
2018-01-16T10:38:36.941Z,1.80
2018-01-16T10:39:37.042Z,2.00
2018-01-16T10:40:36.989Z,2.80
2018-01-16T10:41:36.954Z,4.30
2018-01-16T10:42:36.987Z,2.10
2018-01-16T10:43:36.965Z,2.30
2018-01-16T10:44:36.959Z,2.10
2018-01-16T10:45:36.989Z,3.40
2018-01-16T10:46:36.990Z,2.30
2018-01-16T10:47:42.083Z,1.70
2018-01-16T10:48:37.010Z,2.20
2018-01-16T10:49:37.054Z,1.80
2018-01-16T10:50:37.040Z,2.20
2018-01-16T10:51:37.038Z,2.30
2018-01-16T10:52:36.999Z,2.50
2018-01-16T10:53:37.037Z,2.10
2018-01-16T10:54:36.988Z,2.10
2018-01-16T10:55:37.065Z,2.90
2018-01-16T10:56:36.991Z,2.70
2018-01-16T10:57:37.066Z,3.10
2018-01-16T10:58:36.992Z,2.60
2018-01-16T10:59:37.067Z,2.30
2018-01-16T11:00:37.022Z,2.10
2018-01-16T11:01:37.042Z,2.20
2018-01-16T11:02:37.011Z,2.10
2018-01-16T11:03:37.103Z,2.40
2018-01-16T11:04:37.032Z,2.40
2018-01-16T11:05:37.109Z,3.30
2018-01-16T11:06:37.045Z,2.20
2018-01-16T11:07:37.126Z,2.20
2018-01-16T11:08:37.032Z,2.40
2018-01-16T11:09:37.137Z,3.80
2018-01-16T11:10:37.065Z,3.30
2018-01-16T11:11:37.175Z,3.60
2018-01-16T11:12:37.082Z,2.80
2018-01-16T11:13:37.089Z,2.50
2018-01-16T11:14:37.216Z,3.10
2018-01-16T11:15:37.061Z,2.30
2018-01-16T11:16:37.079Z,3.00
2018-01-16T11:17:37.071Z,3.70
2018-01-16T11:18:37.106Z,2.40
2018-01-16T11:19:37.089Z,3.40
2018-01-16T11:20:37.131Z,4.50
2018-01-16T11:21:37.081Z,2.30
2018-01-16T11:22:37.118Z,5.40
2018-01-16T11:23:37.085Z,2.40
2018-01-16T11:24:37.133Z,2.20
2018-01-16T11:25:37.098Z,3.60
2018-01-16T11:26:37.159Z,3.10
2018-01-16T11:27:37.095Z,3.00
2018-01-16T11:28:37.163Z,2.20
2018-01-16T11:29:37.109Z,2.10
2018-01-16T11:30:37.194Z,2.70
2018-01-16T11:31:37.122Z,3.80
2018-01-16T11:32:37.192Z,3.30
2018-01-16T11:33:37.125Z,3.00
2018-01-16T11:34:37.203Z,7.30
2018-01-16T11:35:37.155Z,6.00
2018-01-16T11:36:37.224Z,5.00
2018-01-16T11:37:37.137Z,3.20
2018-01-16T11:38:37.236Z,4.40
2018-01-16T11:39:37.148Z,3.90
2018-01-16T11:40:37.251Z,5.80
2018-01-16T11:41:37.156Z,4.70
2018-01-16T11:42:37.265Z,2.50
2018-01-16T11:43:37.174Z,4.00
2018-01-16T11:44:37.274Z,4.30
2018-01-16T11:45:37.184Z,3.40
2018-01-16T11:46:37.289Z,3.50
2018-01-16T11:47:37.181Z,4.20
2018-01-16T11:48:38.088Z,3.10
2018-01-16T11:49:37.183Z,3.50
2018-01-16T11:50:37.228Z,7.50
2018-01-16T11:51:37.200Z,5.90
2018-01-16T11:52:37.225Z,3.70
2018-01-16T11:53:37.201Z,3.90
2018-01-16T11:54:37.246Z,4.50
2018-01-16T11:55:37.205Z,4.80
2018-01-16T11:56:37.244Z,4.80
2018-01-16T11:57:37.228Z,5.50
2018-01-16T11:58:37.269Z,4.30
2018-01-16T11:59:37.215Z,5.50
2018-01-16T12:00:37.222Z,4.50
2018-01-16T12:01:37.224Z,4.40
2018-01-16T12:02:37.246Z,8.20
2018-01-16T12:03:37.230Z,6.60
2018-01-16T12:04:37.333Z,5.30
2018-01-16T12:05:37.241Z,5.10
2018-01-16T12:06:37.347Z,4.90
2018-01-16T12:07:37.249Z,5.30
2018-01-16T12:08:37.342Z,4.10
2018-01-16T12:09:37.266Z,5.10
2018-01-16T12:10:37.364Z,4.00
2018-01-16T12:11:37.308Z,7.10
2018-01-16T12:12:37.373Z,6.20
2018-01-16T12:13:37.299Z,5.10
2018-01-16T12:14:37.390Z,8.30
2018-01-16T12:15:37.271Z,6.10
2018-01-16T12:16:37.394Z,4.90
2018-01-16T12:17:37.302Z,4.40
2018-01-16T12:18:37.429Z,5.60
2018-01-16T12:19:37.299Z,6.70
2018-01-16T12:20:37.317Z,6.80
2018-01-16T12:21:37.311Z,7.80
2018-01-16T12:22:37.366Z,4.50
2018-01-16T12:23:37.314Z,7.00
2018-01-16T12:24:37.351Z,7.30
2018-01-16T12:25:37.322Z,5.90
2018-01-16T12:26:37.355Z,5.40
2018-01-16T12:27:37.349Z,7.50
2018-01-16T12:28:37.325Z,5.30
2018-01-16T12:29:37.390Z,4.20
2018-01-16T12:30:37.338Z,6.00
2018-01-16T12:31:37.402Z,6.10
2018-01-16T12:32:37.348Z,3.90
2018-01-16T12:33:37.405Z,3.50
2018-01-16T12:34:37.350Z,6.60
2018-01-16T12:35:37.420Z,5.50
2018-01-16T12:36:37.369Z,5.70
2018-01-16T12:37:37.359Z,3.70
2018-01-16T12:38:37.377Z,8.50
2018-01-16T12:39:37.390Z,5.70
2018-01-16T12:40:37.448Z,5.00
2018-01-16T12:41:37.384Z,5.20
2018-01-16T12:42:37.469Z,2.70
2018-01-16T12:43:37.376Z,6.20
2018-01-16T12:44:37.484Z,5.00
2018-01-16T12:45:37.405Z,10.70
2018-01-16T12:46:37.489Z,5.80
2018-01-16T12:47:37.395Z,6.50
2018-01-16T12:48:37.516Z,3.30
2018-01-16T12:49:37.413Z,6.30
2018-01-16T12:50:37.528Z,5.60
2018-01-16T12:51:37.426Z,4.10
2018-01-16T12:52:37.432Z,6.60
2018-01-16T12:53:37.544Z,3.60
2018-01-16T12:54:37.434Z,4.70
2018-01-16T12:55:37.455Z,6.00
2018-01-16T12:56:37.450Z,4.20
2018-01-16T12:57:37.462Z,4.30
2018-01-16T12:58:37.446Z,4.90
2018-01-16T12:59:37.497Z,1.80
2018-01-16T13:00:37.457Z,4.00
2018-01-16T13:01:37.560Z,7.50
2018-01-16T13:02:37.463Z,5.00
2018-01-16T13:03:37.519Z,6.40
2018-01-16T13:04:37.483Z,6.50
2018-01-16T13:05:37.530Z,5.30
2018-01-16T13:06:37.476Z,5.90
2018-01-16T13:07:37.552Z,4.40